sensor_id;sensor_type;location;lat;lon;timestamp;temperature;humidity
10441;DHT22;5268;49.346;9.522;2023-01-05T04:20:50;11.20;99.90
10441;DHT22;5268;49.346;9.522;2023-01-05T04:25:52;11.20;99.90
10441;DHT22;5268;49.346;9.522;2023-01-05T04:30:54;11.10;99.90
10441;DHT22;5268;49.346;9.522;2023-01-05T04:35:58;11.10;99.90
10441;DHT22;5268;49.346;9.522;2023-01-05T04:41:00;11.20;99.90
10441;DHT22;5268;49.346;9.522;2023-01-05T04:46:02;11.20;99.90
10441;DHT22;5268;49.346;9.522;2023-01-05T04:51:05;11.20;99.90
10441;DHT22;5268;49.346;9.522;2023-01-05T04:56:07;11.10;99.90
10441;DHT22;5268;49.346;9.522;2023-01-05T05:01:10;11.10;99.90
10441;DHT22;5268;49.346;9.522;2023-01-05T05:06:13;11.10;99.90
10441;DHT22;5268;49.346;9.522;2023-01-05T05:11:17;11.10;99.90
10441;DHT22;5268;49.346;9.522;2023-01-05T05:16:19;11.10;99.90
10441;DHT22;5268;49.346;9.522;2023-01-05T05:21:22;11.10;99.90
10441;DHT22;5268;49.346;9.522;2023-01-05T05:26:24;11.00;99.90
10441;DHT22;5268;49.346;9.522;2023-01-05T05:31:26;11.00;99.90
10441;DHT22;5268;49.346;9.522;2023-01-05T05:36:30;11.00;99.90
10441;DHT22;5268;49.346;9.522;2023-01-05T05:41:32;11.00;99.90
10441;DHT22;5268;49.346;9.522;2023-01-05T05:46:34;10.90;99.90
10441;DHT22;5268;49.346;9.522;2023-01-05T05:51:37;10.90;99.90
10441;DHT22;5268;49.346;9.522;2023-01-05T05:56:39;10.80;99.90
10441;DHT22;5268;49.346;9.522;2023-01-05T06:01:43;10.80;99.90
10441;DHT22;5268;49.346;9.522;2023-01-05T06:06:46;10.70;99.90
10441;DHT22;5268;49.346;9.522;2023-01-05T06:11:48;10.70;99.90
10441;DHT22;5268;49.346;9.522;2023-01-05T06:16:50;10.60;99.90
10441;DHT22;5268;49.346;9.522;2023-01-05T06:21:53;10.60;99.90
10441;DHT22;5268;49.346;9.522;2023-01-05T06:26:55;10.50;99.90
10441;DHT22;5268;49.346;9.522;2023-01-05T06:31:57;10.50;99.90
10441;DHT22;5268;49.346;9.522;2023-01-05T06:37:02;10.50;99.90
10441;DHT22;5268;49.346;9.522;2023-01-05T06:42:06;10.50;99.90
10441;DHT22;5268;49.346;9.522;2023-01-05T06:47:08;10.40;99.90
10441;DHT22;5268;49.346;9.522;2023-01-05T06:52:12;10.40;99.90
10441;DHT22;5268;49.346;9.522;2023-01-05T06:57:14;10.40;99.90
10441;DHT22;5268;49.346;9.522;2023-01-05T07:02:16;10.40;99.90
10441;DHT22;5268;49.346;9.522;2023-01-05T07:07:19;10.40;99.90
10441;DHT22;5268;49.346;9.522;2023-01-05T07:12:21;10.40;99.90
10441;DHT22;5268;49.346;9.522;2023-01-05T07:17:23;10.30;99.90
10441;DHT22;5268;49.346;9.522;2023-01-05T07:22:27;10.30;99.90
10441;DHT22;5268;49.346;9.522;2023-01-05T07:27:30;10.30;99.90
10441;DHT22;5268;49.346;9.522;2023-01-05T07:32:32;10.30;99.90
10441;DHT22;5268;49.346;9.522;2023-01-05T07:37:35;10.30;99.90
10441;DHT22;5268;49.346;9.522;2023-01-05T07:42:37;10.30;99.90
10441;DHT22;5268;49.346;9.522;2023-01-05T07:47:39;10.30;99.90
10441;DHT22;5268;49.346;9.522;2023-01-05T07:52:43;10.30;99.90
10441;DHT22;5268;49.346;9.522;2023-01-05T07:57:45;10.30;99.90
10441;DHT22;5268;49.346;9.522;2023-01-05T08:02:48;10.30;99.90
10441;DHT22;5268;49.346;9.522;2023-01-05T08:07:51;10.30;99.90
10441;DHT22;5268;49.346;9.522;2023-01-05T08:12:53;10.30;99.90
10441;DHT22;5268;49.346;9.522;2023-01-05T08:18:13;10.30;99.90
10441;DHT22;5268;49.346;9.522;2023-01-05T08:23:16;10.30;99.90
10441;DHT22;5268;49.346;9.522;2023-01-05T08:28:19;10.40;99.90
10441;DHT22;5268;49.346;9.522;2023-01-05T08:33:21;10.40;99.90
10441;DHT22;5268;49.346;9.522;2023-01-05T08:38:24;10.30;99.90
10441;DHT22;5268;49.346;9.522;2023-01-05T08:43:27;10.40;99.90
10441;DHT22;5268;49.346;9.522;2023-01-05T08:48:28;10.40;99.90
10441;DHT22;5268;49.346;9.522;2023-01-05T08:53:32;10.40;99.90
10441;DHT22;5268;49.346;9.522;2023-01-05T08:58:35;10.40;99.90
10441;DHT22;5268;49.346;9.522;2023-01-05T09:03:37;10.40;99.90
10441;DHT22;5268;49.346;9.522;2023-01-05T09:08:42;10.40;99.90
10441;DHT22;5268;49.346;9.522;2023-01-05T09:13:45;10.40;99.90
10441;DHT22;5268;49.346;9.522;2023-01-05T09:18:49;10.50;99.90
10441;DHT22;5268;49.346;9.522;2023-01-05T09:23:52;10.50;99.90
10441;DHT22;5268;49.346;9.522;2023-01-05T09:28:55;10.50;99.90
10441;DHT22;5268;49.346;9.522;2023-01-05T09:33:57;10.60;99.90
10441;DHT22;5268;49.346;9.522;2023-01-05T09:39:00;10.60;99.90
10441;DHT22;5268;49.346;9.522;2023-01-05T09:44:06;10.70;99.90
10441;DHT22;5268;49.346;9.522;2023-01-05T09:49:14;10.80;99.90
10441;DHT22;5268;49.346;9.522;2023-01-05T09:54:18;10.80;99.90
10441;DHT22;5268;49.346;9.522;2023-01-05T09:59:23;10.90;99.90
10441;DHT22;5268;49.346;9.522;2023-01-05T10:04:28;10.90;99.90
10441;DHT22;5268;49.346;9.522;2023-01-05T10:09:35;11.00;99.90
10441;DHT22;5268;49.346;9.522;2023-01-05T10:14:41;11.00;99.90
10441;DHT22;5268;49.346;9.522;2023-01-05T10:19:45;11.00;99.90
10441;DHT22;5268;49.346;9.522;2023-01-05T10:24:56;11.00;99.90
10441;DHT22;5268;49.346;9.522;2023-01-05T10:30:04;11.00;99.90
10441;DHT22;5268;49.346;9.522;2023-01-05T10:35:22;11.00;99.90
10441;DHT22;5268;49.346;9.522;2023-01-05T10:40:37;11.00;99.90
10441;DHT22;5268;49.346;9.522;2023-01-05T10:45:41;11.00;99.90
10441;DHT22;5268;49.346;9.522;2023-01-05T10:50:43;11.00;99.90
10441;DHT22;5268;49.346;9.522;2023-01-05T10:55:53;11.00;99.90
10441;DHT22;5268;49.346;9.522;2023-01-05T11:01:01;11.00;99.90
10441;DHT22;5268;49.346;9.522;2023-01-05T11:06:04;11.00;99.90
10441;DHT22;5268;49.346;9.522;2023-01-05T11:11:19;11.00;99.90
10441;DHT22;5268;49.346;9.522;2023-01-05T11:16:23;11.00;99.90
10441;DHT22;5268;49.346;9.522;2023-01-05T11:21:38;11.10;99.90
10441;DHT22;5268;49.346;9.522;2023-01-05T11:26:49;11.20;99.90
10441;DHT22;5268;49.346;9.522;2023-01-05T11:31:53;11.20;99.90
10441;DHT22;5268;49.346;9.522;2023-01-05T11:36:58;11.20;99.90
10441;DHT22;5268;49.346;9.522;2023-01-05T11:42:12;11.20;99.90
10441;DHT22;5268;49.346;9.522;2023-01-05T11:47:25;11.20;99.90
10441;DHT22;5268;49.346;9.522;2023-01-05T11:52:32;11.20;99.90
10441;DHT22;5268;49.346;9.522;2023-01-05T11:57:38;11.20;99.90
10441;DHT22;5268;49.346;9.522;2023-01-05T12:08:12;11.20;99.90
10441;DHT22;5268;49.346;9.522;2023-01-05T12:13:28;11.20;99.90
10441;DHT22;5268;49.346;9.522;2023-01-05T12:19:09;11.30;99.90
10441;DHT22;5268;49.346;9.522;2023-01-05T12:24:43;11.30;99.90
10441;DHT22;5268;49.346;9.522;2023-01-05T12:30:13;11.30;99.90
10441;DHT22;5268;49.346;9.522;2023-01-05T12:40:57;11.40;99.90
10441;DHT22;5268;49.346;9.522;2023-01-05T12:46:11;11.50;99.90
10441;DHT22;5268;49.346;9.522;2023-01-05T12:51:18;11.50;99.90
10441;DHT22;5268;49.346;9.522;2023-01-05T12:56:26;11.50;99.90
10441;DHT22;5268;49.346;9.522;2023-01-05T13:01:34;11.50;99.90
10441;DHT22;5268;49.346;9.522;2023-01-05T13:06:41;11.50;99.90
10441;DHT22;5268;49.346;9.522;2023-01-05T13:11:47;11.50;99.90
10441;DHT22;5268;49.346;9.522;2023-01-05T13:16:54;11.50;99.90
10441;DHT22;5268;49.346;9.522;2023-01-05T13:22:03;11.50;99.90
10441;DHT22;5268;49.346;9.522;2023-01-05T13:27:08;11.50;99.90
10441;DHT22;5268;49.346;9.522;2023-01-05T13:32:40;11.50;99.90
10441;DHT22;5268;49.346;9.522;2023-01-05T13:43:42;11.50;99.90
10441;DHT22;5268;49.346;9.522;2023-01-05T13:49:18;11.40;99.90
10441;DHT22;5268;49.346;9.522;2023-01-05T13:54:36;11.40;99.90
10441;DHT22;5268;49.346;9.522;2023-01-05T13:59:41;11.50;99.90
10441;DHT22;5268;49.346;9.522;2023-01-05T14:04:45;11.50;99.90
10441;DHT22;5268;49.346;9.522;2023-01-05T14:09:50;11.50;99.90
10441;DHT22;5268;49.346;9.522;2023-01-05T14:15:04;11.50;99.90
10441;DHT22;5268;49.346;9.522;2023-01-05T14:20:36;11.50;99.90
10441;DHT22;5268;49.346;9.522;2023-01-05T14:25:57;11.50;99.90
10441;DHT22;5268;49.346;9.522;2023-01-05T14:36:43;11.40;99.90
10441;DHT22;5268;49.346;9.522;2023-01-05T14:41:54;11.30;99.90
10441;DHT22;5268;49.346;9.522;2023-01-05T14:46:57;11.30;99.90
10441;DHT22;5268;49.346;9.522;2023-01-05T14:52:03;11.20;99.90
10441;DHT22;5268;49.346;9.522;2023-01-05T14:57:34;11.20;99.90
10441;DHT22;5268;49.346;9.522;2023-01-05T15:02:44;11.20;99.90
10441;DHT22;5268;49.346;9.522;2023-01-05T15:07:55;11.10;99.90
10441;DHT22;5268;49.346;9.522;2023-01-05T15:13:35;11.10;99.90
10441;DHT22;5268;49.346;9.522;2023-01-05T15:19:01;11.00;99.90
10441;DHT22;5268;49.346;9.522;2023-01-05T15:24:51;11.00;99.90
10441;DHT22;5268;49.346;9.522;2023-01-05T15:30:17;11.00;99.90
10441;DHT22;5268;49.346;9.522;2023-01-05T15:35:27;10.90;99.90
10441;DHT22;5268;49.346;9.522;2023-01-05T15:40:32;10.90;99.90
10441;DHT22;5268;49.346;9.522;2023-01-05T15:45:36;10.80;99.90
10441;DHT22;5268;49.346;9.522;2023-01-05T15:50:45;10.80;99.90
10441;DHT22;5268;49.346;9.522;2023-01-05T15:55:48;10.80;99.90
10441;DHT22;5268;49.346;9.522;2023-01-05T16:01:05;10.80;99.90
10441;DHT22;5268;49.346;9.522;2023-01-05T16:06:10;10.80;99.90
10441;DHT22;5268;49.346;9.522;2023-01-05T16:11:20;10.80;99.90
10441;DHT22;5268;49.346;9.522;2023-01-05T16:16:25;10.80;99.90
10441;DHT22;5268;49.346;9.522;2023-01-05T16:21:33;10.80;99.90
10441;DHT22;5268;49.346;9.522;2023-01-05T16:26:37;10.90;99.90
10441;DHT22;5268;49.346;9.522;2023-01-05T16:31:39;10.90;99.90
10441;DHT22;5268;49.346;9.522;2023-01-05T16:37:00;10.90;99.90
10441;DHT22;5268;49.346;9.522;2023-01-05T16:42:10;10.90;99.90
10441;DHT22;5268;49.346;9.522;2023-01-05T16:47:35;11.00;99.90
10441;DHT22;5268;49.346;9.522;2023-01-05T16:52:38;11.00;99.90
10441;DHT22;5268;49.346;9.522;2023-01-05T16:57:42;11.00;99.90
10441;DHT22;5268;49.346;9.522;2023-01-05T17:02:46;11.00;99.90
10441;DHT22;5268;49.346;9.522;2023-01-05T17:07:50;11.00;99.90
10441;DHT22;5268;49.346;9.522;2023-01-05T17:12:59;11.00;99.90
10441;DHT22;5268;49.346;9.522;2023-01-05T17:18:13;10.90;99.90
10441;DHT22;5268;49.346;9.522;2023-01-05T17:23:19;10.90;99.90
10441;DHT22;5268;49.346;9.522;2023-01-05T17:28:23;10.90;99.90
10441;DHT22;5268;49.346;9.522;2023-01-05T17:33:25;10.80;99.90
10441;DHT22;5268;49.346;9.522;2023-01-05T17:38:27;10.80;99.90
10441;DHT22;5268;49.346;9.522;2023-01-05T17:43:30;10.80;99.90
10441;DHT22;5268;49.346;9.522;2023-01-05T17:48:32;10.80;99.90
10441;DHT22;5268;49.346;9.522;2023-01-05T17:53:34;10.80;99.90
10441;DHT22;5268;49.346;9.522;2023-01-05T17:58:38;10.70;99.90
10441;DHT22;5268;49.346;9.522;2023-01-05T18:03:40;10.70;99.90
10441;DHT22;5268;49.346;9.522;2023-01-05T18:08:42;10.70;99.90
10441;DHT22;5268;49.346;9.522;2023-01-05T18:13:45;10.60;99.90
10441;DHT22;5268;49.346;9.522;2023-01-05T18:18:47;10.60;99.90
10441;DHT22;5268;49.346;9.522;2023-01-05T18:23:49;10.60;99.90
10441;DHT22;5268;49.346;9.522;2023-01-05T18:28:53;10.50;99.90
10441;DHT22;5268;49.346;9.522;2023-01-05T18:33:55;10.50;99.90
10441;DHT22;5268;49.346;9.522;2023-01-05T18:38:57;10.40;99.90
10441;DHT22;5268;49.346;9.522;2023-01-05T18:44:00;10.40;99.90
10441;DHT22;5268;49.346;9.522;2023-01-05T18:49:02;10.40;99.90
10441;DHT22;5268;49.346;9.522;2023-01-05T18:54:05;10.40;99.90
10441;DHT22;5268;49.346;9.522;2023-01-05T18:59:10;10.30;99.90
10441;DHT22;5268;49.346;9.522;2023-01-05T19:04:14;10.30;99.90
10441;DHT22;5268;49.346;9.522;2023-01-05T19:09:16;10.30;99.90
10441;DHT22;5268;49.346;9.522;2023-01-05T19:14:19;10.30;99.90
10441;DHT22;5268;49.346;9.522;2023-01-05T19:19:21;10.30;99.90
10441;DHT22;5268;49.346;9.522;2023-01-05T19:24:25;10.30;99.90
10441;DHT22;5268;49.346;9.522;2023-01-05T19:29:28;10.30;99.90
10441;DHT22;5268;49.346;9.522;2023-01-05T19:34:30;10.30;99.90
10441;DHT22;5268;49.346;9.522;2023-01-05T19:39:32;10.30;99.90
10441;DHT22;5268;49.346;9.522;2023-01-05T19:44:37;10.30;99.90
10441;DHT22;5268;49.346;9.522;2023-01-05T19:49:39;10.20;99.90
10441;DHT22;5268;49.346;9.522;2023-01-05T19:54:41;10.20;99.90
10441;DHT22;5268;49.346;9.522;2023-01-05T19:59:44;10.20;99.90
10441;DHT22;5268;49.346;9.522;2023-01-05T20:04:46;10.20;99.90
10441;DHT22;5268;49.346;9.522;2023-01-05T20:09:49;10.20;99.90
10441;DHT22;5268;49.346;9.522;2023-01-05T20:14:52;10.20;99.90
10441;DHT22;5268;49.346;9.522;2023-01-05T20:19:54;10.20;99.90
10441;DHT22;5268;49.346;9.522;2023-01-05T20:24:56;10.20;99.90
10441;DHT22;5268;49.346;9.522;2023-01-05T20:30:00;10.20;99.90
10441;DHT22;5268;49.346;9.522;2023-01-05T20:35:02;10.20;99.90
10441;DHT22;5268;49.346;9.522;2023-01-05T20:40:04;10.20;99.90
10441;DHT22;5268;49.346;9.522;2023-01-05T20:45:08;10.30;99.90
10441;DHT22;5268;49.346;9.522;2023-01-05T20:50:10;10.20;99.90
10441;DHT22;5268;49.346;9.522;2023-01-05T20:55:13;10.20;99.90
10441;DHT22;5268;49.346;9.522;2023-01-05T21:00:17;10.20;99.90
10441;DHT22;5268;49.346;9.522;2023-01-05T21:05:19;10.30;99.90
10441;DHT22;5268;49.346;9.522;2023-01-05T21:10:21;10.20;99.90
10441;DHT22;5268;49.346;9.522;2023-01-05T21:15:24;10.20;99.90
10441;DHT22;5268;49.346;9.522;2023-01-05T21:20:27;10.20;99.90
10441;DHT22;5268;49.346;9.522;2023-01-05T21:25:29;10.20;99.90
10441;DHT22;5268;49.346;9.522;2023-01-05T21:30:33;10.20;99.90
10441;DHT22;5268;49.346;9.522;2023-01-05T21:35:35;10.20;99.90
10441;DHT22;5268;49.346;9.522;2023-01-05T21:40:37;10.20;99.90
10441;DHT22;5268;49.346;9.522;2023-01-05T21:45:41;10.20;99.90
10441;DHT22;5268;49.346;9.522;2023-01-05T21:50:43;10.10;99.90
10441;DHT22;5268;49.346;9.522;2023-01-05T21:56:06;10.10;99.90
10441;DHT22;5268;49.346;9.522;2023-01-05T22:01:27;10.10;99.90
10441;DHT22;5268;49.346;9.522;2023-01-05T22:06:29;10.10;99.90
10441;DHT22;5268;49.346;9.522;2023-01-05T22:11:31;10.10;99.90
10441;DHT22;5268;49.346;9.522;2023-01-05T22:16:35;10.10;99.90
10441;DHT22;5268;49.346;9.522;2023-01-05T22:21:37;10.10;99.90
10441;DHT22;5268;49.346;9.522;2023-01-05T22:26:39;10.10;99.90
